Flight Track Log - Related Links

Times and Time Zones

All times are in EDT time to prevent confusion due to time zone crossing. See the DAL2033 flight status page for this flight to view local times or setup timezone preferences in your user account.

Time Position Orientation Groundspeed Altitude Reporting Facility
EDT Latitude Longitude Course Direction KTS MPH feet Rate Location/Type
Thu 03:17:11 PM 33.6500 -84.4667 296° West 174 200 2,300  Level Atlanta TRACON
Thu 03:18:11 PM 33.6833 -84.5500 296° West 247 284 4,100 2,250 Climbing Atlanta TRACON
Thu 03:19:11 PM 33.7333 -84.5833 331° Northwest 274 315 6,800 2,431 Climbing Atlanta TRACON
Thu 03:20:44 PM 33.8392 -84.5439 17° North 274 315 10,300 1,686 Climbing Atlanta Center
Thu 03:21:44 PM 33.9022 -84.4567 49° Northeast 290 334 11,100 1,200 Climbing Atlanta Center
Thu 03:22:44 PM 33.9900 -84.3794 36° Northeast 359 413 12,700 1,800 Climbing Atlanta Center
Thu 03:23:44 PM 34.0922 -84.3472 15° North 378 435 14,700 2,000 Climbing Atlanta Center
Thu 03:24:44 PM 34.2114 -84.3075 15° North 411 473 16,700 1,850 Climbing Atlanta Center
Thu 03:25:44 PM 34.3306 -84.2728 14° North 424 488 18,400 1,650 Climbing Atlanta Center
Thu 03:26:44 PM 34.4494 -84.2428 12° North 436 502 20,000 1,400 Climbing Atlanta Center
Thu 03:27:44 PM 34.5747 -84.2128 11° North 443 510 21,200 1,200 Climbing Atlanta Center
Thu 03:28:44 PM 34.6875 -84.1903 North 453 521 22,400 1,300 Climbing Atlanta Center
Thu 03:29:44 PM 34.8189 -84.1578 11° North 458 527 23,800 1,500 Climbing Atlanta Center
Thu 03:31:44 PM 35.0756 -84.0972 11° North 469 540 26,900 1,433 Climbing Atlanta Center
Thu 03:32:44 PM 35.2072 -84.0642 12° North 469 540 28,100 1,200 Climbing Atlanta Center
Thu 03:33:44 PM 35.3364 -84.0336 11° North 469 540 29,300 1,000 Climbing Atlanta Center
Thu 03:34:44 PM 35.4636 -84.0006 12° North 469 540 30,100 950 Climbing Atlanta Center
Thu 03:35:44 PM 35.5911 -83.9597 15° North 469 540 31,200 900 Climbing Atlanta Center
Thu 03:36:44 PM 35.7097 -83.8981 23° Northeast 469 540 31,900 750 Climbing Atlanta Center
Thu 03:37:44 PM 35.8308 -83.8364 22° Northeast 469 540 32,700 550 Climbing Atlanta Center
Thu 03:38:44 PM 35.9517 -83.7769 22° Northeast 469 540 33,000 150 Climbing Atlanta Center
Thu 03:39:44 PM 36.0725 -83.7150 23° Northeast 469 540 33,000  Level Atlanta Center
Thu 03:40:30 PM 36.1672 -83.6658 23° Northeast 465 535 33,000  Level Indianapolis Center
Thu 03:41:32 PM 36.2861 -83.6067 22° Northeast 464 534 33,000  Level Indianapolis Center
Thu 03:42:34 PM 36.4058 -83.5450 23° Northeast 466 536 33,000  Level Indianapolis Center
Thu 03:43:36 PM 36.5344 -83.4822 21° North 469 540 33,000  Level Indianapolis Center
Thu 03:44:38 PM 36.6539 -83.4175 23° Northeast 465 535 33,000  Level Indianapolis Center
Thu 03:45:40 PM 36.7864 -83.3197 31° Northeast 468 539 33,000  Level Indianapolis Center
Thu 03:46:42 PM 36.9017 -83.2372 30° Northeast 472 543 33,000  Level Indianapolis Center
Thu 03:47:44 PM 37.0175 -83.1539 30° Northeast 473 544 33,000  Level Indianapolis Center
Thu 03:48:46 PM 37.1339 -83.0703 30° Northeast 475 547 33,000  Level Indianapolis Center
Thu 03:49:48 PM 37.2494 -82.9872 30° Northeast 472 543 33,000  Level Indianapolis Center
Thu 03:50:50 PM 37.3747 -82.9336 19° North 474 545 33,000  Level Indianapolis Center
Thu 03:51:52 PM 37.4997 -82.8789 19° North 473 544 33,000  Level Indianapolis Center
Thu 03:52:54 PM 37.6450 -82.8119 20° North 475 547 33,000  Level Indianapolis Center
Thu 03:53:56 PM 37.7700 -82.7572 19° North 472 543 33,000  Level Indianapolis Center
Thu 03:54:58 PM 37.8956 -82.7022 19° North 476 548 33,000  Level Indianapolis Center
Thu 03:56:00 PM 38.0158 -82.6306 25° Northeast 475 547 33,000  Level Indianapolis Center
Thu 03:57:03 PM 38.1367 -82.5511 27° Northeast 485 558 33,000  Level Indianapolis Center
Thu 03:58:05 PM 38.2619 -82.4525 32° Northeast 483 556 33,000  Level Indianapolis Center
Thu 03:59:07 PM 38.3764 -82.3569 33° Northeast 488 562 33,000  Level Indianapolis Center
Thu 04:00:09 PM 38.4900 -82.2617 33° Northeast 487 560 33,000  Level Indianapolis Center
Thu 04:01:11 PM 38.6053 -82.1636 34° Northeast 492 566 33,000  Level Indianapolis Center
Thu 04:02:13 PM 38.7219 -82.0644 34° Northeast 498 573 33,000  Level Indianapolis Center
Thu 04:03:15 PM 38.8397 -81.9672 33° Northeast 497 572 33,000  Level Indianapolis Center
Thu 04:04:17 PM 38.9578 -81.8675 33° Northeast 500 575 33,000  Level Indianapolis Center
Thu 04:05:19 PM 39.0975 -81.7453 34° Northeast 501 577 33,000  Level Indianapolis Center
Thu 04:06:21 PM 39.2167 -81.6417 34° Northeast 512 589 33,000  Level Indianapolis Center
Thu 04:07:23 PM 39.3347 -81.5400 34° Northeast 509 586 33,000  Level Indianapolis Center
Thu 04:08:25 PM 39.4528 -81.4400 33° Northeast 506 582 33,000  Level Indianapolis Center
Thu 04:09:27 PM 39.5703 -81.3361 34° Northeast 509 586 33,000  Level Indianapolis Center
Thu 04:10:29 PM 39.6878 -81.2328 34° Northeast 509 586 33,000  Level Indianapolis Center
Thu 04:11:31 PM 39.8064 -81.1300 34° Northeast 510 587 33,000  Level Indianapolis Center
Thu 04:12:33 PM 39.9483 -81.0033 34° Northeast 515 593 33,000  Level Indianapolis Center
Thu 04:13:35 PM 40.0594 -80.9039 34° Northeast 513 590 33,000  Level Indianapolis Center
Thu 04:14:37 PM 40.1775 -80.7983 34° Northeast 513 590 33,000  Level Indianapolis Center
Thu 04:15:47 PM 40.3172 -80.6731 34° Northeast 510 587 33,000  Level Cleveland Center
Thu 04:16:47 PM 40.4342 -80.5694 34° Northeast 515 593 33,000  Level Cleveland Center
Thu 04:17:48 PM 40.5528 -80.4600 35° Northeast 515 593 33,000  Level Cleveland Center
Thu 04:18:48 PM 40.6672 -80.3558 35° Northeast 508 585 33,000  Level Cleveland Center
Thu 04:19:47 PM 40.7858 -80.2514 34° Northeast 508 585 33,000  Level Cleveland Center
Thu 04:20:47 PM 40.8811 -80.0969 51° Northeast 508 585 33,000  Level Cleveland Center
Thu 04:21:47 PM 40.8347 -79.9519 113° Southeast 383 441 33,000  Level Cleveland Center
Thu 04:22:47 PM 40.7303 -79.9092 163° South 300 345 33,000  Level Cleveland Center
Thu 04:23:47 PM 40.6367 -79.9647 204° Southwest 278 320 33,000 200 Level Cleveland Center
Thu 04:24:47 PM 40.5558 -80.0311 212° Southwest 326 375 33,400 500 Climbing Cleveland Center
Thu 04:25:47 PM 40.4622 -80.1111 213° Southwest 356 410 34,000 298 Climbing Cleveland Center
Thu 04:26:48 PM 40.3750 -80.1825 212° Southwest 362 417 34,000  Level Cleveland Center
Thu 04:27:47 PM 40.2897 -80.2511 212° Southwest 362 417 34,000  Level Cleveland Center
Thu 04:28:47 PM 40.2044 -80.3194 211° Southwest 369 425 34,000  Level Cleveland Center
Thu 04:29:48 PM 40.1294 -80.3794 211° Southwest 369 425 34,000  Level Cleveland Center
Thu 04:30:47 PM 40.0419 -80.4503 212° Southwest 369 425 34,000  Level Cleveland Center
Thu 04:31:47 PM 39.9525 -80.5208 211° Southwest 369 425 34,000  Level Cleveland Center
Thu 04:32:50 PM 39.8503 -80.5986 210° Southwest 374 430 34,000  Level Indianapolis Center
Thu 04:33:52 PM 39.7611 -80.6719 212° Southwest 377 434 34,000  Level Indianapolis Center
Thu 04:34:54 PM 39.6714 -80.7428 211° Southwest 376 433 34,000  Level Indianapolis Center
Thu 04:35:56 PM 39.5828 -80.8153 212° Southwest 376 433 34,000  Level Indianapolis Center
Thu 04:36:58 PM 39.4939 -80.8858 211° Southwest 375 432 34,000  Level Indianapolis Center
Thu 04:38:00 PM 39.4042 -80.9553 211° Southwest 374 430 34,000  Level Indianapolis Center
Thu 04:39:02 PM 39.2950 -81.0411 211° Southwest 382 440 34,000  Level Indianapolis Center
Thu 04:40:04 PM 39.2036 -81.1108 211° Southwest 380 437 34,000  Level Indianapolis Center
Thu 04:41:06 PM 39.1122 -81.1822 211° Southwest 382 440 34,000  Level Indianapolis Center
Thu 04:42:08 PM 39.0211 -81.2528 211° Southwest 382 440 34,000  Level Indianapolis Center
Thu 04:43:10 PM 38.9289 -81.3239 211° Southwest 385 443 34,000  Level Indianapolis Center
Thu 04:44:12 PM 38.8369 -81.3944 211° Southwest 385 443 34,000  Level Indianapolis Center
Thu 04:45:14 PM 38.7406 -81.4700 211° Southwest 384 442 34,000  Level Indianapolis Center
Thu 04:46:16 PM 38.6344 -81.5511 211° Southwest 382 440 34,000  Level Indianapolis Center
Thu 04:47:18 PM 38.5544 -81.6133 211° Southwest 383 441 34,000  Level Indianapolis Center
Thu 04:48:20 PM 38.4617 -81.6847 211° Southwest 388 447 34,000  Level Indianapolis Center
Thu 04:49:22 PM 38.3425 -81.7453 202° Southwest 387 445 34,000  Level Indianapolis Center
Thu 04:50:25 PM 38.2347 -81.7742 192° South 393 452 34,000  Level Indianapolis Center
Thu 04:51:27 PM 38.1308 -81.8144 197° South 392 451 34,000  Level Indianapolis Center
Thu 04:52:29 PM 38.0361 -81.8858 211° Southwest 395 455 34,000  Level Indianapolis Center
Thu 04:53:31 PM 37.9511 -81.9708 218° Southwest 390 449 34,000  Level Indianapolis Center
Thu 04:54:33 PM 37.8628 -82.0564 217° Southwest 396 456 34,000  Level Indianapolis Center
Thu 04:55:35 PM 37.7678 -82.1514 218° Southwest 395 455 34,000  Level Indianapolis Center
Thu 04:56:37 PM 37.6792 -82.2358 217° Southwest 399 459 34,000  Level Indianapolis Center
Thu 04:57:39 PM 37.5772 -82.3361 218° Southwest 400 460 34,000  Level Indianapolis Center
Thu 04:58:41 PM 37.4869 -82.4211 217° Southwest 404 465 34,000  Level Indianapolis Center
Thu 04:59:43 PM 37.3958 -82.5069 217° Southwest 409 471 34,000  Level Indianapolis Center
Thu 05:00:45 PM 37.3019 -82.5919 216° Southwest 416 479 34,000  Level Indianapolis Center
Thu 05:01:47 PM 37.2044 -82.6681 212° Southwest 413 475 34,000  Level Indianapolis Center
Thu 05:02:49 PM 37.0861 -82.7469 208° Southwest 411 473 34,000  Level Indianapolis Center
Thu 05:03:51 PM 36.9847 -82.8150 208° Southwest 412 474 34,000  Level Indianapolis Center
Thu 05:04:53 PM 36.8781 -82.8450 193° South 424 488 34,000  Level Indianapolis Center
Thu 05:05:55 PM 36.7431 -82.8583 185° South 424 488 34,000  Level Indianapolis Center
Thu 05:06:57 PM 36.6236 -82.8503 177° South 429 494 34,000  Level Indianapolis Center
Thu 05:08:00 PM 36.5053 -82.8431 177° South 426 490 34,000  Level Indianapolis Center
Thu 05:09:08 PM 36.3569 -82.8372 178° South 423 487 34,000  Level Atlanta Center
Thu 05:10:08 PM 36.2422 -82.8442 183° South 423 487 34,000  Level Atlanta Center
Thu 05:11:08 PM 36.1256 -82.8536 184° South 418 481 34,000  Level Atlanta Center
Thu 05:12:08 PM 36.0089 -82.8683 186° South 423 487 34,000  Level Atlanta Center
Thu 05:13:08 PM 35.8964 -82.8828 186° South 423 487 34,000  Level Atlanta Center
Thu 05:14:08 PM 35.7775 -82.8972 186° South 423 487 34,000  Level Atlanta Center
Thu 05:15:08 PM 35.6608 -82.9117 186° South 423 487 34,000  Level Atlanta Center
Thu 05:16:08 PM 35.5442 -82.9258 186° South 428 493 34,000 -500 Level Atlanta Center
Thu 05:17:08 PM 35.4319 -82.9631 195° South 422 486 33,000 -1,500 Descending Atlanta Center
Thu 05:18:08 PM 35.3281 -83.0256 206° Southwest 419 482 31,000 -1,700 Descending Atlanta Center
Thu 05:19:08 PM 35.2244 -83.0956 209° Southwest 424 488 29,600 -1,000 Descending Atlanta Center
Thu 05:20:08 PM 35.1225 -83.1600 207° Southwest 424 488 29,000 -350 Descending Atlanta Center
Thu 05:21:08 PM 35.0167 -83.2372 211° Southwest 430 495 28,900 -500 Descending Atlanta Center
Thu 05:22:08 PM 34.9147 -83.3017 207° Southwest 430 495 28,000 -450 Descending Atlanta Center
Thu 05:23:08 PM 34.8089 -83.3758 210° Southwest 435 501 28,000 3,000 Level Atlanta Center
Thu 05:24:08 PM 34.7047 -83.4425 208° Southwest 435 501 34,000 -1,850 Climbing Atlanta Center
Thu 05:25:08 PM 34.5944 -83.5139 208° Southwest 435 501 24,300 -6,850 Descending Atlanta Center
Thu 05:26:08 PM 34.4864 -83.5853 209° Southwest 435 501 20,300 -3,450 Descending Atlanta Center
Thu 05:27:08 PM 34.3822 -83.6536 208° Southwest 440 506 17,400 -2,900 Descending Atlanta Center
Thu 05:28:08 PM 34.2781 -83.7219 208° Southwest 434 499 14,500 -2,700 Descending Atlanta Center
Thu 05:29:08 PM 34.1800 -83.7853 208° Southwest 416 479 12,000 -1,300 Descending Atlanta Center
Thu 05:30:08 PM 34.0989 -83.8406 209° Southwest 371 427 11,900 -400 Descending Atlanta Center
Thu 05:31:08 PM 34.0383 -83.8933 216° Southwest 330 380 11,200 -939 Descending Atlanta Center
Thu 05:32:03 PM 33.9833 -83.9667 228° Southwest 291 335 10,100 -1,091 Descending Atlanta TRACON
Thu 05:33:09 PM 33.8833 -83.9833 188° South 323 372 9,000 -528 Descending Atlanta TRACON
Thu 05:34:08 PM 33.8067 -83.9764 176° South 315 362 9,000 -50 Level Atlanta Center
Thu 05:35:08 PM 33.7192 -83.9789 181° South 321 369 8,900 -650 Descending Atlanta Center
Thu 05:36:08 PM 33.6397 -84.0139 200° South 286 329 7,700 -1,150 Descending Atlanta Center
Thu 05:37:08 PM 33.6272 -84.0811 257° West 230 265 6,600 -1,148 Descending Atlanta Center
Thu 05:38:03 PM 33.6333 -84.1333 278° West 175 201 5,500 -1,148 Descending Atlanta TRACON
Thu 05:39:03 PM 33.6333 -84.2000 270° West 181 208 4,400 -900 Descending Atlanta TRACON
Thu 05:40:03 PM 33.6333 -84.2500 270° West 165 190 3,700 -842 Descending Atlanta TRACON
Thu 05:40:57 PM 33.6333 -84.3000 270° West 154 177 2,800 -842 Descending Atlanta TRACON
Thu 05:41:57 PM 33.6333 -84.3500 270° West 141 162 2,100 -700 Descending Atlanta TRACON
Thu 05:42:57 PM 33.6333 -84.4000 270° West 144 166 1,400 -700 Descending Atlanta TRACON
Thu 05:44:00 PM 33.6367 -84.4279 270° West  Level Estimated
Thu 05:51:00 PM 33.6367 -84.4279 64° Northeast  Level Estimated

Login

Don't have an account? Register now (free) for customized features, flight alerts, and more!